sensor_id;sensor_type;location;lat;lon;timestamp;temperature;humidity
9699;DHT22;10089;47.876;8.346;2023-04-03T00:05:51;1.80;99.90
9699;DHT22;10089;47.876;8.346;2023-04-03T00:08:17;1.80;99.90
9699;DHT22;10089;47.876;8.346;2023-04-03T00:10:42;2.20;99.90
9699;DHT22;10089;47.876;8.346;2023-04-03T00:13:09;1.50;99.90
9699;DHT22;10089;47.876;8.346;2023-04-03T00:15:35;1.70;99.90
9699;DHT22;10089;47.876;8.346;2023-04-03T00:18:01;1.40;99.90
9699;DHT22;10089;47.876;8.346;2023-04-03T00:20:27;1.40;99.90
9699;DHT22;10089;47.876;8.346;2023-04-03T00:22:53;1.40;99.90
9699;DHT22;10089;47.876;8.346;2023-04-03T00:25:19;1.80;99.90
9699;DHT22;10089;47.876;8.346;2023-04-03T00:27:45;1.40;99.90
9699;DHT22;10089;47.876;8.346;2023-04-03T00:30:14;1.80;99.90
9699;DHT22;10089;47.876;8.346;2023-04-03T00:32:40;2.10;99.90
9699;DHT22;10089;47.876;8.346;2023-04-03T00:35:05;1.50;99.90
9699;DHT22;10089;47.876;8.346;2023-04-03T00:37:32;1.30;99.90
9699;DHT22;10089;47.876;8.346;2023-04-03T00:39:57;1.30;99.90
9699;DHT22;10089;47.876;8.346;2023-04-03T00:42:24;2.10;99.90
9699;DHT22;10089;47.876;8.346;2023-04-03T00:47:18;1.40;99.90
9699;DHT22;10089;47.876;8.346;2023-04-03T00:49:45;1.10;99.90
9699;DHT22;10089;47.876;8.346;2023-04-03T00:52:14;1.10;99.90
9699;DHT22;10089;47.876;8.346;2023-04-03T00:54:42;1.60;99.90
9699;DHT22;10089;47.876;8.346;2023-04-03T00:57:09;1.20;99.90
9699;DHT22;10089;47.876;8.346;2023-04-03T00:59:40;1.10;99.90
9699;DHT22;10089;47.876;8.346;2023-04-03T01:02:09;1.80;99.90
9699;DHT22;10089;47.876;8.346;2023-04-03T01:04:37;1.70;99.90
9699;DHT22;10089;47.876;8.346;2023-04-03T01:07:12;1.40;99.90
9699;DHT22;10089;47.876;8.346;2023-04-03T01:09:39;1.10;99.90
9699;DHT22;10089;47.876;8.346;2023-04-03T01:12:17;1.10;99.90
9699;DHT22;10089;47.876;8.346;2023-04-03T01:14:45;1.20;99.90
9699;DHT22;10089;47.876;8.346;2023-04-03T01:25:28;1.10;99.90
9699;DHT22;10089;47.876;8.346;2023-04-03T01:27:54;1.20;99.90
9699;DHT22;10089;47.876;8.346;2023-04-03T01:30:23;1.10;99.90
9699;DHT22;10089;47.876;8.346;2023-04-03T01:32:50;1.30;99.90
9699;DHT22;10089;47.876;8.346;2023-04-03T01:35:16;1.00;99.90
9699;DHT22;10089;47.876;8.346;2023-04-03T01:37:41;0.90;99.90
9699;DHT22;10089;47.876;8.346;2023-04-03T01:40:07;2.00;99.90
9699;DHT22;10089;47.876;8.346;2023-04-03T01:42:33;1.00;99.90
9699;DHT22;10089;47.876;8.346;2023-04-03T01:44:59;0.80;99.90
9699;DHT22;10089;47.876;8.346;2023-04-03T01:47:25;0.80;99.90
9699;DHT22;10089;47.876;8.346;2023-04-03T01:49:50;1.00;99.90
9699;DHT22;10089;47.876;8.346;2023-04-03T01:52:16;1.70;99.90
9699;DHT22;10089;47.876;8.346;2023-04-03T01:54:42;0.90;99.90
9699;DHT22;10089;47.876;8.346;2023-04-03T01:57:07;1.20;99.90
9699;DHT22;10089;47.876;8.346;2023-04-03T01:59:33;0.80;99.90
9699;DHT22;10089;47.876;8.346;2023-04-03T02:01:59;0.90;99.90
9699;DHT22;10089;47.876;8.346;2023-04-03T02:04:24;1.60;99.90
9699;DHT22;10089;47.876;8.346;2023-04-03T02:06:50;0.70;99.90
9699;DHT22;10089;47.876;8.346;2023-04-03T02:09:16;0.70;99.90
9699;DHT22;10089;47.876;8.346;2023-04-03T02:11:41;1.50;99.90
9699;DHT22;10089;47.876;8.346;2023-04-03T02:14:07;1.60;99.90
9699;DHT22;10089;47.876;8.346;2023-04-03T02:16:33;0.80;99.90
9699;DHT22;10089;47.876;8.346;2023-04-03T02:18:58;0.80;99.90
9699;DHT22;10089;47.876;8.346;2023-04-03T02:21:24;1.50;99.90
9699;DHT22;10089;47.876;8.346;2023-04-03T02:23:50;1.60;99.90
9699;DHT22;10089;47.876;8.346;2023-04-03T02:26:17;0.70;99.90
9699;DHT22;10089;47.876;8.346;2023-04-03T02:28:42;0.60;99.90
9699;DHT22;10089;47.876;8.346;2023-04-03T02:31:09;0.60;99.90
9699;DHT22;10089;47.876;8.346;2023-04-03T02:33:35;0.70;99.90
9699;DHT22;10089;47.876;8.346;2023-04-03T02:36:03;0.80;99.90
9699;DHT22;10089;47.876;8.346;2023-04-03T02:38:29;0.70;99.90
9699;DHT22;10089;47.876;8.346;2023-04-03T02:41:10;1.00;99.90
9699;DHT22;10089;47.876;8.346;2023-04-03T02:43:36;1.50;99.90
9699;DHT22;10089;47.876;8.346;2023-04-03T02:46:03;1.30;99.90
9699;DHT22;10089;47.876;8.346;2023-04-03T02:48:29;0.80;99.90
9699;DHT22;10089;47.876;8.346;2023-04-03T02:50:55;0.70;99.90
9699;DHT22;10089;47.876;8.346;2023-04-03T02:53:21;0.60;99.90
9699;DHT22;10089;47.876;8.346;2023-04-03T02:55:47;0.70;99.90
9699;DHT22;10089;47.876;8.346;2023-04-03T02:58:13;0.80;99.90
9699;DHT22;10089;47.876;8.346;2023-04-03T03:00:38;0.90;99.90
9699;DHT22;10089;47.876;8.346;2023-04-03T03:03:04;1.70;99.90
9699;DHT22;10089;47.876;8.346;2023-04-03T03:05:31;0.70;99.90
9699;DHT22;10089;47.876;8.346;2023-04-03T03:07:57;0.60;99.90
9699;DHT22;10089;47.876;8.346;2023-04-03T03:10:23;1.30;99.90
9699;DHT22;10089;47.876;8.346;2023-04-03T03:12:49;0.70;99.90
9699;DHT22;10089;47.876;8.346;2023-04-03T03:15:15;0.70;99.90
9699;DHT22;10089;47.876;8.346;2023-04-03T03:17:43;0.80;99.90
9699;DHT22;10089;47.876;8.346;2023-04-03T03:20:09;0.90;99.90
9699;DHT22;10089;47.876;8.346;2023-04-03T03:22:35;0.80;99.90
9699;DHT22;10089;47.876;8.346;2023-04-03T03:25:01;0.80;99.90
9699;DHT22;10089;47.876;8.346;2023-04-03T03:27:28;0.80;99.90
9699;DHT22;10089;47.876;8.346;2023-04-03T03:29:53;0.80;99.90
9699;DHT22;10089;47.876;8.346;2023-04-03T03:32:19;0.80;99.90
9699;DHT22;10089;47.876;8.346;2023-04-03T03:34:45;0.90;99.90
9699;DHT22;10089;47.876;8.346;2023-04-03T03:37:10;1.30;99.90
9699;DHT22;10089;47.876;8.346;2023-04-03T03:39:36;1.40;99.90
9699;DHT22;10089;47.876;8.346;2023-04-03T03:42:02;1.60;99.90
9699;DHT22;10089;47.876;8.346;2023-04-03T03:44:27;0.80;99.90
9699;DHT22;10089;47.876;8.346;2023-04-03T03:46:54;0.70;99.90
9699;DHT22;10089;47.876;8.346;2023-04-03T03:49:20;0.90;99.90
9699;DHT22;10089;47.876;8.346;2023-04-03T03:51:46;0.50;99.90
9699;DHT22;10089;47.876;8.346;2023-04-03T03:54:12;0.70;99.90
9699;DHT22;10089;47.876;8.346;2023-04-03T03:56:38;0.80;99.90
9699;DHT22;10089;47.876;8.346;2023-04-03T03:59:03;1.50;99.90
9699;DHT22;10089;47.876;8.346;2023-04-03T04:01:29;0.90;99.90
9699;DHT22;10089;47.876;8.346;2023-04-03T04:03:56;1.60;99.90
9699;DHT22;10089;47.876;8.346;2023-04-03T04:06:21;0.80;99.90
9699;DHT22;10089;47.876;8.346;2023-04-03T04:08:47;0.80;99.90
9699;DHT22;10089;47.876;8.346;2023-04-03T04:11:13;1.50;99.90
9699;DHT22;10089;47.876;8.346;2023-04-03T04:13:38;0.80;99.90
9699;DHT22;10089;47.876;8.346;2023-04-03T04:16:04;1.20;99.90
9699;DHT22;10089;47.876;8.346;2023-04-03T04:18:30;0.80;99.90
9699;DHT22;10089;47.876;8.346;2023-04-03T04:20:56;1.20;99.90
9699;DHT22;10089;47.876;8.346;2023-04-03T04:23:22;0.80;99.90
9699;DHT22;10089;47.876;8.346;2023-04-03T04:25:49;0.70;99.90
9699;DHT22;10089;47.876;8.346;2023-04-03T04:28:16;0.40;99.90
9699;DHT22;10089;47.876;8.346;2023-04-03T04:30:42;0.70;99.90
9699;DHT22;10089;47.876;8.346;2023-04-03T04:33:08;1.90;99.90
9699;DHT22;10089;47.876;8.346;2023-04-03T04:35:34;1.10;99.90
9699;DHT22;10089;47.876;8.346;2023-04-03T04:37:59;1.30;99.90
9699;DHT22;10089;47.876;8.346;2023-04-03T04:40:26;0.60;99.90
9699;DHT22;10089;47.876;8.346;2023-04-03T04:42:51;1.20;99.90
9699;DHT22;10089;47.876;8.346;2023-04-03T04:45:18;0.70;99.90
9699;DHT22;10089;47.876;8.346;2023-04-03T04:47:43;0.70;99.90
9699;DHT22;10089;47.876;8.346;2023-04-03T04:50:10;1.70;99.90
9699;DHT22;10089;47.876;8.346;2023-04-03T04:52:35;1.50;99.90
9699;DHT22;10089;47.876;8.346;2023-04-03T04:55:01;0.70;99.90
9699;DHT22;10089;47.876;8.346;2023-04-03T04:57:27;0.70;99.90
9699;DHT22;10089;47.876;8.346;2023-04-03T04:59:53;0.70;99.90
9699;DHT22;10089;47.876;8.346;2023-04-03T05:02:18;-0.10;99.90
9699;DHT22;10089;47.876;8.346;2023-04-03T05:04:44;1.40;99.90
9699;DHT22;10089;47.876;8.346;2023-04-03T05:07:10;0.60;99.90
9699;DHT22;10089;47.876;8.346;2023-04-03T05:09:35;1.00;99.90
9699;DHT22;10089;47.876;8.346;2023-04-03T05:12:01;0.20;99.90
9699;DHT22;10089;47.876;8.346;2023-04-03T05:14:28;0.60;99.90
9699;DHT22;10089;47.876;8.346;2023-04-03T05:16:54;0.70;99.90
9699;DHT22;10089;47.876;8.346;2023-04-03T05:19:21;0.50;99.90
9699;DHT22;10089;47.876;8.346;2023-04-03T05:21:47;0.70;99.90
9699;DHT22;10089;47.876;8.346;2023-04-03T05:24:15;1.40;99.90
9699;DHT22;10089;47.876;8.346;2023-04-03T05:26:42;0.40;99.90
9699;DHT22;10089;47.876;8.346;2023-04-03T05:29:08;1.40;99.90
9699;DHT22;10089;47.876;8.346;2023-04-03T05:31:34;1.50;99.90
9699;DHT22;10089;47.876;8.346;2023-04-03T05:34:00;1.40;99.90
9699;DHT22;10089;47.876;8.346;2023-04-03T05:36:25;1.00;99.90
9699;DHT22;10089;47.876;8.346;2023-04-03T05:38:52;0.20;99.90
9699;DHT22;10089;47.876;8.346;2023-04-03T05:41:18;1.60;99.90
9699;DHT22;10089;47.876;8.346;2023-04-03T05:43:44;1.60;99.90
9699;DHT22;10089;47.876;8.346;2023-04-03T05:46:15;1.20;99.90
9699;DHT22;10089;47.876;8.346;2023-04-03T05:48:41;0.70;99.90
9699;DHT22;10089;47.876;8.346;2023-04-03T05:51:09;0.60;99.90
9699;DHT22;10089;47.876;8.346;2023-04-03T05:53:39;0.20;99.90
9699;DHT22;10089;47.876;8.346;2023-04-03T05:56:04;0.70;99.90
9699;DHT22;10089;47.876;8.346;2023-04-03T05:58:30;0.60;99.90
9699;DHT22;10089;47.876;8.346;2023-04-03T06:00:56;0.60;99.90
9699;DHT22;10089;47.876;8.346;2023-04-03T06:03:22;-0.10;99.90
9699;DHT22;10089;47.876;8.346;2023-04-03T06:05:48;0.50;99.90
9699;DHT22;10089;47.876;8.346;2023-04-03T06:08:14;0.80;99.90
9699;DHT22;10089;47.876;8.346;2023-04-03T06:10:40;0.20;99.90
9699;DHT22;10089;47.876;8.346;2023-04-03T06:13:06;0.70;99.90
9699;DHT22;10089;47.876;8.346;2023-04-03T06:15:32;0.60;99.90
9699;DHT22;10089;47.876;8.346;2023-04-03T06:17:58;1.10;99.90
9699;DHT22;10089;47.876;8.346;2023-04-03T06:20:23;1.40;99.90
9699;DHT22;10089;47.876;8.346;2023-04-03T06:22:49;0.60;99.90
9699;DHT22;10089;47.876;8.346;2023-04-03T06:25:16;0.30;99.90
9699;DHT22;10089;47.876;8.346;2023-04-03T06:27:44;0.80;99.90
9699;DHT22;10089;47.876;8.346;2023-04-03T06:30:11;0.10;99.90
9699;DHT22;10089;47.876;8.346;2023-04-03T06:32:37;0.20;99.90
9699;DHT22;10089;47.876;8.346;2023-04-03T06:35:04;-0.30;99.90
9699;DHT22;10089;47.876;8.346;2023-04-03T06:37:30;0.10;99.90
9699;DHT22;10089;47.876;8.346;2023-04-03T06:39:56;0.20;99.90
9699;DHT22;10089;47.876;8.346;2023-04-03T06:42:22;1.00;99.90
9699;DHT22;10089;47.876;8.346;2023-04-03T06:44:48;0.20;99.90
9699;DHT22;10089;47.876;8.346;2023-04-03T06:47:27;1.30;99.90
9699;DHT22;10089;47.876;8.346;2023-04-03T06:49:53;0.00;99.90
9699;DHT22;10089;47.876;8.346;2023-04-03T06:52:19;0.50;99.90
9699;DHT22;10089;47.876;8.346;2023-04-03T06:54:44;-0.10;99.90
9699;DHT22;10089;47.876;8.346;2023-04-03T06:57:10;0.40;99.90
9699;DHT22;10089;47.876;8.346;2023-04-03T06:59:36;-0.30;99.90
9699;DHT22;10089;47.876;8.346;2023-04-03T07:02:02;-0.20;99.90
9699;DHT22;10089;47.876;8.346;2023-04-03T07:04:27;0.60;99.90
9699;DHT22;10089;47.876;8.346;2023-04-03T07:06:53;-0.30;99.90
9699;DHT22;10089;47.876;8.346;2023-04-03T07:09:19;0.50;99.90
9699;DHT22;10089;47.876;8.346;2023-04-03T07:11:45;0.80;99.90
9699;DHT22;10089;47.876;8.346;2023-04-03T07:14:11;-0.70;99.90
9699;DHT22;10089;47.876;8.346;2023-04-03T07:16:36;-0.70;99.90
9699;DHT22;10089;47.876;8.346;2023-04-03T07:19:03;-0.30;99.90
9699;DHT22;10089;47.876;8.346;2023-04-03T07:21:29;0.20;99.90
9699;DHT22;10089;47.876;8.346;2023-04-03T07:23:55;0.50;99.90
9699;DHT22;10089;47.876;8.346;2023-04-03T07:26:22;0.00;99.90
9699;DHT22;10089;47.876;8.346;2023-04-03T07:28:48;0.70;99.90
9699;DHT22;10089;47.876;8.346;2023-04-03T07:31:15;0.30;99.90
9699;DHT22;10089;47.876;8.346;2023-04-03T07:33:42;-0.50;99.90
9699;DHT22;10089;47.876;8.346;2023-04-03T07:36:09;0.00;99.90
9699;DHT22;10089;47.876;8.346;2023-04-03T07:38:36;1.20;93.50
9699;DHT22;10089;47.876;8.346;2023-04-03T07:41:03;0.90;28.20
9699;DHT22;10089;47.876;8.346;2023-04-03T07:43:30;0.00;12.10
9699;DHT22;10089;47.876;8.346;2023-04-03T07:45:55;-0.50;1.00
9699;DHT22;10089;47.876;8.346;2023-04-03T07:48:22;0.50;18.30
9699;DHT22;10089;47.876;8.346;2023-04-03T07:50:48;0.70;1.00
9699;DHT22;10089;47.876;8.346;2023-04-03T07:53:15;-0.50;1.00
9699;DHT22;10089;47.876;8.346;2023-04-03T07:55:40;0.30;28.40
9699;DHT22;10089;47.876;8.346;2023-04-03T07:58:17;0.30;1.00
9699;DHT22;10089;47.876;8.346;2023-04-03T08:00:43;-0.30;1.00
9699;DHT22;10089;47.876;8.346;2023-04-03T08:03:10;0.50;11.80
9699;DHT22;10089;47.876;8.346;2023-04-03T08:05:41;1.30;1.00
9699;DHT22;10089;47.876;8.346;2023-04-03T08:08:08;0.90;1.00
9699;DHT22;10089;47.876;8.346;2023-04-03T08:10:34;0.30;1.00
9699;DHT22;10089;47.876;8.346;2023-04-03T08:13:00;0.70;1.00
9699;DHT22;10089;47.876;8.346;2023-04-03T08:15:26;0.80;1.00
9699;DHT22;10089;47.876;8.346;2023-04-03T08:18:28;0.30;1.00
9699;DHT22;10089;47.876;8.346;2023-04-03T08:20:54;0.50;1.00
9699;DHT22;10089;47.876;8.346;2023-04-03T08:23:20;1.20;1.00
9699;DHT22;10089;47.876;8.346;2023-04-03T08:25:46;0.60;1.00
9699;DHT22;10089;47.876;8.346;2023-04-03T08:28:12;0.60;1.00
9699;DHT22;10089;47.876;8.346;2023-04-03T08:30:42;0.70;1.00
9699;DHT22;10089;47.876;8.346;2023-04-03T08:33:08;2.00;1.00
9699;DHT22;10089;47.876;8.346;2023-04-03T08:35:38;0.90;1.00
9699;DHT22;10089;47.876;8.346;2023-04-03T08:38:04;1.00;1.00
9699;DHT22;10089;47.876;8.346;2023-04-03T08:40:30;1.20;1.00
9699;DHT22;10089;47.876;8.346;2023-04-03T08:45:27;1.30;1.00
9699;DHT22;10089;47.876;8.346;2023-04-03T08:48:05;1.40;99.90
9699;DHT22;10089;47.876;8.346;2023-04-03T08:50:51;1.00;1.00
9699;DHT22;10089;47.876;8.346;2023-04-03T08:53:21;0.70;1.00
9699;DHT22;10089;47.876;8.346;2023-04-03T08:55:49;1.30;1.00
9699;DHT22;10089;47.876;8.346;2023-04-03T08:58:30;1.00;1.00
9699;DHT22;10089;47.876;8.346;2023-04-03T09:01:10;1.10;1.00
9699;DHT22;10089;47.876;8.346;2023-04-03T09:03:41;1.20;1.00
9699;DHT22;10089;47.876;8.346;2023-04-03T09:06:12;1.20;1.00
9699;DHT22;10089;47.876;8.346;2023-04-03T09:15:03;1.10;99.90
9699;DHT22;10089;47.876;8.346;2023-04-03T09:23:24;1.30;99.90
9699;DHT22;10089;47.876;8.346;2023-04-03T09:25:58;1.20;1.00
9699;DHT22;10089;47.876;8.346;2023-04-03T09:28:37;1.80;1.00
9699;DHT22;10089;47.876;8.346;2023-04-03T09:33:46;1.50;1.00
9699;DHT22;10089;47.876;8.346;2023-04-03T09:36:12;1.10;1.00
9699;DHT22;10089;47.876;8.346;2023-04-03T09:38:38;1.60;1.00
9699;DHT22;10089;47.876;8.346;2023-04-03T09:41:14;1.70;1.00
9699;DHT22;10089;47.876;8.346;2023-04-03T09:43:52;1.30;1.00
9699;DHT22;10089;47.876;8.346;2023-04-03T09:46:25;1.30;1.00
9699;DHT22;10089;47.876;8.346;2023-04-03T09:49:03;1.30;99.90
9699;DHT22;10089;47.876;8.346;2023-04-03T09:51:30;1.70;1.00
9699;DHT22;10089;47.876;8.346;2023-04-03T09:53:57;1.70;1.00
9699;DHT22;10089;47.876;8.346;2023-04-03T09:56:26;1.80;1.00
9699;DHT22;10089;47.876;8.346;2023-04-03T10:01:33;1.50;1.00
9699;DHT22;10089;47.876;8.346;2023-04-03T10:04:15;1.70;1.00
9699;DHT22;10089;47.876;8.346;2023-04-03T10:06:44;1.90;1.00
9699;DHT22;10089;47.876;8.346;2023-04-03T10:09:25;2.00;1.00
9699;DHT22;10089;47.876;8.346;2023-04-03T10:12:00;1.90;1.00
9699;DHT22;10089;47.876;8.346;2023-04-03T10:14:28;1.60;1.00
9699;DHT22;10089;47.876;8.346;2023-04-03T10:30:58;1.80;1.00
9699;DHT22;10089;47.876;8.346;2023-04-03T10:36:45;2.10;1.00
9699;DHT22;10089;47.876;8.346;2023-04-03T10:57:25;2.00;1.00
9699;DHT22;10089;47.876;8.346;2023-04-03T10:59:55;2.00;1.00
9699;DHT22;10089;47.876;8.346;2023-04-03T11:05:47;1.90;1.00
9699;DHT22;10089;47.876;8.346;2023-04-03T11:11:09;1.90;1.00
9699;DHT22;10089;47.876;8.346;2023-04-03T11:13:45;1.90;1.00
9699;DHT22;10089;47.876;8.346;2023-04-03T11:16:21;1.90;1.00
9699;DHT22;10089;47.876;8.346;2023-04-03T11:18:56;2.20;1.00
9699;DHT22;10089;47.876;8.346;2023-04-03T11:21:41;2.10;1.00
9699;DHT22;10089;47.876;8.346;2023-04-03T11:24:17;2.10;1.00
9699;DHT22;10089;47.876;8.346;2023-04-03T11:26:47;2.10;1.00
9699;DHT22;10089;47.876;8.346;2023-04-03T11:29:22;2.00;1.00
9699;DHT22;10089;47.876;8.346;2023-04-03T11:34:46;2.40;1.00
9699;DHT22;10089;47.876;8.346;2023-04-03T11:37:33;2.00;1.00
9699;DHT22;10089;47.876;8.346;2023-04-03T11:40:05;2.40;1.00
9699;DHT22;10089;47.876;8.346;2023-04-03T11:42:40;2.60;1.00
9699;DHT22;10089;47.876;8.346;2023-04-03T11:50:58;2.50;1.00
9699;DHT22;10089;47.876;8.346;2023-04-03T11:53:35;2.50;1.00
9699;DHT22;10089;47.876;8.346;2023-04-03T11:56:27;2.50;1.00
9699;DHT22;10089;47.876;8.346;2023-04-03T12:04:27;2.50;99.90
9699;DHT22;10089;47.876;8.346;2023-04-03T12:07:11;2.60;99.90
9699;DHT22;10089;47.876;8.346;2023-04-03T12:10:13;2.60;1.00
9699;DHT22;10089;47.876;8.346;2023-04-03T12:12:40;2.70;1.00
9699;DHT22;10089;47.876;8.346;2023-04-03T12:15:19;2.70;99.90
9699;DHT22;10089;47.876;8.346;2023-04-03T12:17:46;2.60;1.00
9699;DHT22;10089;47.876;8.346;2023-04-03T12:23:30;2.60;1.00
9699;DHT22;10089;47.876;8.346;2023-04-03T12:26:34;2.50;1.00
9699;DHT22;10089;47.876;8.346;2023-04-03T12:29:28;2.40;1.00
9699;DHT22;10089;47.876;8.346;2023-04-03T12:32:30;2.50;99.90
9699;DHT22;10089;47.876;8.346;2023-04-03T12:35:19;2.70;99.90
9699;DHT22;10089;47.876;8.346;2023-04-03T12:40:58;2.80;99.90
9699;DHT22;10089;47.876;8.346;2023-04-03T12:46:16;2.60;1.00
9699;DHT22;10089;47.876;8.346;2023-04-03T12:48:50;2.60;1.00
9699;DHT22;10089;47.876;8.346;2023-04-03T12:51:39;2.40;45.80
9699;DHT22;10089;47.876;8.346;2023-04-03T12:54:19;2.40;99.90
9699;DHT22;10089;47.876;8.346;2023-04-03T12:56:47;2.40;1.00
9699;DHT22;10089;47.876;8.346;2023-04-03T12:59:33;2.70;81.60
9699;DHT22;10089;47.876;8.346;2023-04-03T13:02:00;2.40;1.00
9699;DHT22;10089;47.876;8.346;2023-04-03T13:04:31;2.40;99.90
9699;DHT22;10089;47.876;8.346;2023-04-03T13:06:57;2.60;99.90
9699;DHT22;10089;47.876;8.346;2023-04-03T13:09:26;2.60;1.00
9699;DHT22;10089;47.876;8.346;2023-04-03T13:12:02;2.80;1.00
9699;DHT22;10089;47.876;8.346;2023-04-03T13:17:38;2.70;1.00
9699;DHT22;10089;47.876;8.346;2023-04-03T13:20:22;2.70;1.00
9699;DHT22;10089;47.876;8.346;2023-04-03T13:25:17;3.00;1.00
9699;DHT22;10089;47.876;8.346;2023-04-03T13:27:43;2.70;1.00
9699;DHT22;10089;47.876;8.346;2023-04-03T13:30:31;2.70;1.00
9699;DHT22;10089;47.876;8.346;2023-04-03T13:33:01;3.10;1.00
9699;DHT22;10089;47.876;8.346;2023-04-03T13:35:37;2.70;1.00
9699;DHT22;10089;47.876;8.346;2023-04-03T13:38:26;2.80;4.60
9699;DHT22;10089;47.876;8.346;2023-04-03T13:41:24;3.00;99.90
9699;DHT22;10089;47.876;8.346;2023-04-03T13:43:50;2.80;1.00
9699;DHT22;10089;47.876;8.346;2023-04-03T13:48:47;3.00;99.90
9699;DHT22;10089;47.876;8.346;2023-04-03T13:53:52;2.90;7.50
9699;DHT22;10089;47.876;8.346;2023-04-03T13:56:45;2.90;99.90
9699;DHT22;10089;47.876;8.346;2023-04-03T14:04:23;2.80;12.00
9699;DHT22;10089;47.876;8.346;2023-04-03T14:06:50;2.90;1.00
9699;DHT22;10089;47.876;8.346;2023-04-03T14:09:18;2.90;1.00
9699;DHT22;10089;47.876;8.346;2023-04-03T14:11:44;3.20;99.90
9699;DHT22;10089;47.876;8.346;2023-04-03T14:14:14;3.10;1.00
9699;DHT22;10089;47.876;8.346;2023-04-03T14:16:45;2.90;1.00
9699;DHT22;10089;47.876;8.346;2023-04-03T14:19:19;2.70;1.00
9699;DHT22;10089;47.876;8.346;2023-04-03T14:21:45;2.80;99.90
9699;DHT22;10089;47.876;8.346;2023-04-03T14:24:11;2.50;72.10
9699;DHT22;10089;47.876;8.346;2023-04-03T14:26:37;2.50;99.90
9699;DHT22;10089;47.876;8.346;2023-04-03T14:29:03;2.60;99.90
9699;DHT22;10089;47.876;8.346;2023-04-03T14:31:29;2.40;1.00
9699;DHT22;10089;47.876;8.346;2023-04-03T14:33:54;2.40;99.90
9699;DHT22;10089;47.876;8.346;2023-04-03T14:36:23;3.00;1.00
9699;DHT22;10089;47.876;8.346;2023-04-03T14:38:51;2.70;40.90
9699;DHT22;10089;47.876;8.346;2023-04-03T14:41:19;2.90;1.00
9699;DHT22;10089;47.876;8.346;2023-04-03T14:43:55;3.40;99.90
9699;DHT22;10089;47.876;8.346;2023-04-03T14:46:26;2.60;1.00
9699;DHT22;10089;47.876;8.346;2023-04-03T14:48:52;2.50;99.90
9699;DHT22;10089;47.876;8.346;2023-04-03T14:51:18;2.50;1.00
9699;DHT22;10089;47.876;8.346;2023-04-03T14:53:44;2.20;1.00
9699;DHT22;10089;47.876;8.346;2023-04-03T14:56:22;2.20;1.00
9699;DHT22;10089;47.876;8.346;2023-04-03T14:58:50;2.30;22.00
9699;DHT22;10089;47.876;8.346;2023-04-03T15:01:18;2.50;1.00
9699;DHT22;10089;47.876;8.346;2023-04-03T15:03:44;2.40;85.80
9699;DHT22;10089;47.876;8.346;2023-04-03T15:06:13;2.40;1.00
9699;DHT22;10089;47.876;8.346;2023-04-03T15:08:41;2.60;99.90
9699;DHT22;10089;47.876;8.346;2023-04-03T15:11:09;2.40;1.00
9699;DHT22;10089;47.876;8.346;2023-04-03T15:13:36;2.70;83.10
9699;DHT22;10089;47.876;8.346;2023-04-03T15:16:02;2.60;99.90
9699;DHT22;10089;47.876;8.346;2023-04-03T15:18:33;2.70;1.00
9699;DHT22;10089;47.876;8.346;2023-04-03T15:21:01;2.60;99.90
9699;DHT22;10089;47.876;8.346;2023-04-03T15:23:27;2.50;56.00
9699;DHT22;10089;47.876;8.346;2023-04-03T15:25:55;2.70;99.90
9699;DHT22;10089;47.876;8.346;2023-04-03T15:28:41;2.90;1.00
9699;DHT22;10089;47.876;8.346;2023-04-03T15:31:08;2.40;99.90
9699;DHT22;10089;47.876;8.346;2023-04-03T15:33:34;3.40;99.90
9699;DHT22;10089;47.876;8.346;2023-04-03T15:36:00;2.50;99.90
9699;DHT22;10089;47.876;8.346;2023-04-03T15:38:26;2.60;1.00
9699;DHT22;10089;47.876;8.346;2023-04-03T15:40:53;2.40;4.90
9699;DHT22;10089;47.876;8.346;2023-04-03T15:43:20;2.10;1.00
9699;DHT22;10089;47.876;8.346;2023-04-03T15:45:45;2.10;99.90
9699;DHT22;10089;47.876;8.346;2023-04-03T15:48:12;2.10;99.90
9699;DHT22;10089;47.876;8.346;2023-04-03T15:50:38;2.10;1.00
9699;DHT22;10089;47.876;8.346;2023-04-03T15:53:07;1.90;1.00
9699;DHT22;10089;47.876;8.346;2023-04-03T15:55:35;1.90;1.00
9699;DHT22;10089;47.876;8.346;2023-04-03T15:58:02;2.20;1.00
9699;DHT22;10089;47.876;8.346;2023-04-03T16:00:35;2.10;1.00
9699;DHT22;10089;47.876;8.346;2023-04-03T16:03:12;2.00;1.00
9699;DHT22;10089;47.876;8.346;2023-04-03T16:05:40;2.20;99.90
9699;DHT22;10089;47.876;8.346;2023-04-03T16:08:06;2.10;10.10
9699;DHT22;10089;47.876;8.346;2023-04-03T16:10:34;2.10;1.00
9699;DHT22;10089;47.876;8.346;2023-04-03T16:13:00;2.00;1.00
9699;DHT22;10089;47.876;8.346;2023-04-03T16:15:26;2.00;1.00
9699;DHT22;10089;47.876;8.346;2023-04-03T16:17:53;2.00;99.90
9699;DHT22;10089;47.876;8.346;2023-04-03T16:20:19;2.10;1.00
9699;DHT22;10089;47.876;8.346;2023-04-03T16:22:47;1.70;99.90
9699;DHT22;10089;47.876;8.346;2023-04-03T16:25:13;1.70;1.00
9699;DHT22;10089;47.876;8.346;2023-04-03T16:27:39;1.70;1.00
9699;DHT22;10089;47.876;8.346;2023-04-03T16:30:14;1.90;1.00
9699;DHT22;10089;47.876;8.346;2023-04-03T16:32:40;1.50;1.00
9699;DHT22;10089;47.876;8.346;2023-04-03T16:35:06;2.50;99.90
9699;DHT22;10089;47.876;8.346;2023-04-03T16:37:32;1.90;99.90
9699;DHT22;10089;47.876;8.346;2023-04-03T16:39:58;1.80;99.90
9699;DHT22;10089;47.876;8.346;2023-04-03T16:42:24;1.70;99.90
9699;DHT22;10089;47.876;8.346;2023-04-03T16:44:50;1.80;99.90
9699;DHT22;10089;47.876;8.346;2023-04-03T16:47:16;2.30;99.90
9699;DHT22;10089;47.876;8.346;2023-04-03T16:49:44;1.60;1.00
9699;DHT22;10089;47.876;8.346;2023-04-03T16:52:10;1.90;1.00
9699;DHT22;10089;47.876;8.346;2023-04-03T16:54:36;1.70;99.90
9699;DHT22;10089;47.876;8.346;2023-04-03T16:57:02;2.20;1.00
9699;DHT22;10089;47.876;8.346;2023-04-03T16:59:27;1.90;1.00
9699;DHT22;10089;47.876;8.346;2023-04-03T17:02:00;1.60;99.90
9699;DHT22;10089;47.876;8.346;2023-04-03T17:04:26;1.90;99.90
9699;DHT22;10089;47.876;8.346;2023-04-03T17:06:52;1.70;99.90
9699;DHT22;10089;47.876;8.346;2023-04-03T17:09:17;1.80;99.90
9699;DHT22;10089;47.876;8.346;2023-04-03T17:11:43;1.80;1.00
9699;DHT22;10089;47.876;8.346;2023-04-03T17:14:09;2.40;99.90
9699;DHT22;10089;47.876;8.346;2023-04-03T17:16:36;1.90;1.00
9699;DHT22;10089;47.876;8.346;2023-04-03T17:19:02;1.70;1.00
9699;DHT22;10089;47.876;8.346;2023-04-03T17:21:36;1.60;1.00
9699;DHT22;10089;47.876;8.346;2023-04-03T17:24:04;1.40;1.00
9699;DHT22;10089;47.876;8.346;2023-04-03T17:26:34;1.60;1.00
9699;DHT22;10089;47.876;8.346;2023-04-03T17:29:02;1.60;1.00
9699;DHT22;10089;47.876;8.346;2023-04-03T17:31:28;1.50;1.00
9699;DHT22;10089;47.876;8.346;2023-04-03T17:33:53;1.40;36.40
9699;DHT22;10089;47.876;8.346;2023-04-03T17:36:19;1.50;1.00
9699;DHT22;10089;47.876;8.346;2023-04-03T17:38:45;1.40;1.00
9699;DHT22;10089;47.876;8.346;2023-04-03T17:41:14;1.60;44.40
9699;DHT22;10089;47.876;8.346;2023-04-03T17:43:40;1.50;99.90
9699;DHT22;10089;47.876;8.346;2023-04-03T17:49:15;1.40;99.90
9699;DHT22;10089;47.876;8.346;2023-04-03T17:51:43;1.30;99.90
9699;DHT22;10089;47.876;8.346;2023-04-03T17:54:08;2.00;1.00
9699;DHT22;10089;47.876;8.346;2023-04-03T17:56:34;1.80;99.90
9699;DHT22;10089;47.876;8.346;2023-04-03T17:59:00;2.00;28.60
9699;DHT22;10089;47.876;8.346;2023-04-03T18:01:31;1.60;1.00
9699;DHT22;10089;47.876;8.346;2023-04-03T18:03:59;1.60;1.00
9699;DHT22;10089;47.876;8.346;2023-04-03T18:06:29;1.10;1.00
9699;DHT22;10089;47.876;8.346;2023-04-03T18:09:14;1.00;1.00
9699;DHT22;10089;47.876;8.346;2023-04-03T18:11:42;1.50;1.00
9699;DHT22;10089;47.876;8.346;2023-04-03T18:14:08;0.90;1.00
9699;DHT22;10089;47.876;8.346;2023-04-03T18:16:34;1.10;1.00